sensor_id;sensor_type;location;lat;lon;timestamp;pressure;altitude;pressure_sealevel;temperature;humidity
72409;BME280;60402;48.082;11.628;2023-06-24T00:01:22;96233.91;;;16.71;90.54
72409;BME280;60402;48.082;11.628;2023-06-24T00:04:08;96233.91;;;16.71;90.55
72409;BME280;60402;48.082;11.628;2023-06-24T00:06:54;96237.59;;;16.72;90.92
72409;BME280;60402;48.082;11.628;2023-06-24T00:09:41;96221.34;;;16.69;90.47
72409;BME280;60402;48.082;11.628;2023-06-24T00:12:27;96225.34;;;16.71;90.03
72409;BME280;60402;48.082;11.628;2023-06-24T00:15:13;96232.84;;;16.78;90.51
72409;BME280;60402;48.082;11.628;2023-06-24T00:17:58;96220.56;;;16.68;90.56
72409;BME280;60402;48.082;11.628;2023-06-24T00:20:50;96234.81;;;16.68;90.76
72409;BME280;60402;48.082;11.628;2023-06-24T00:23:36;96217.53;;;16.63;90.39
72409;BME280;60402;48.082;11.628;2023-06-24T00:26:22;96221.81;;;16.67;90.73
72409;BME280;60402;48.082;11.628;2023-06-24T00:29:08;96224.81;;;16.64;90.33
72409;BME280;60402;48.082;11.628;2023-06-24T00:31:54;96227.78;;;16.60;90.45
72409;BME280;60402;48.082;11.628;2023-06-24T00:34:39;96226.69;;;16.57;90.95
72409;BME280;60402;48.082;11.628;2023-06-24T00:37:29;96227.34;;;16.61;90.65
72409;BME280;60402;48.082;11.628;2023-06-24T00:40:14;96224.03;;;16.63;90.38
72409;BME280;60402;48.082;11.628;2023-06-24T00:43:01;96209.09;;;16.59;90.01
72409;BME280;60402;48.082;11.628;2023-06-24T00:45:47;96216.19;;;16.54;90.20
72409;BME280;60402;48.082;11.628;2023-06-24T00:48:34;96212.22;;;16.52;90.15
72409;BME280;60402;48.082;11.628;2023-06-24T00:51:20;96219.25;;;16.60;90.05
72409;BME280;60402;48.082;11.628;2023-06-24T00:54:06;96218.31;;;16.63;89.51
72409;BME280;60402;48.082;11.628;2023-06-24T00:56:52;96207.81;;;16.60;89.17
72409;BME280;60402;48.082;11.628;2023-06-24T00:59:40;96218.06;;;16.48;90.18
72409;BME280;60402;48.082;11.628;2023-06-24T01:02:29;96211.63;;;16.57;90.03
72409;BME280;60402;48.082;11.628;2023-06-24T01:05:18;96208.13;;;16.53;89.95
72409;BME280;60402;48.082;11.628;2023-06-24T01:08:06;96188.88;;;16.44;90.02
72409;BME280;60402;48.082;11.628;2023-06-24T01:10:51;96202.84;;;16.51;89.64
72409;BME280;60402;48.082;11.628;2023-06-24T01:13:37;96185.72;;;16.42;89.33
72409;BME280;60402;48.082;11.628;2023-06-24T01:17:03;96199.38;;;16.47;89.50
72409;BME280;60402;48.082;11.628;2023-06-24T01:20:11;96174.19;;;16.24;89.96
72409;BME280;60402;48.082;11.628;2023-06-24T01:31:46;96198.72;;;16.43;90.31
72409;BME280;60402;48.082;11.628;2023-06-24T01:34:37;96183.72;;;16.30;90.20
72409;BME280;60402;48.082;11.628;2023-06-24T01:40:27;96189.81;;;16.41;90.20
72409;BME280;60402;48.082;11.628;2023-06-24T01:43:16;96180.75;;;16.33;90.00
72409;BME280;60402;48.082;11.628;2023-06-24T01:46:04;96165.81;;;16.29;89.78
72409;BME280;60402;48.082;11.628;2023-06-24T01:48:55;96189.97;;;16.38;90.27
72409;BME280;60402;48.082;11.628;2023-06-24T01:51:44;96185.97;;;16.35;90.59
72409;BME280;60402;48.082;11.628;2023-06-24T01:54:33;96172.38;;;16.17;91.45
72409;BME280;60402;48.082;11.628;2023-06-24T01:57:20;96179.59;;;16.31;91.16
72409;BME280;60402;48.082;11.628;2023-06-24T02:00:09;96191.75;;;16.00;92.74
72409;BME280;60402;48.082;11.628;2023-06-24T02:02:55;96180.19;;;16.04;92.13
72409;BME280;60402;48.082;11.628;2023-06-24T02:05:42;96179.34;;;16.16;91.13
72409;BME280;60402;48.082;11.628;2023-06-24T02:08:31;96186.44;;;16.12;91.82
72409;BME280;60402;48.082;11.628;2023-06-24T02:11:19;96171.38;;;15.89;92.90
72409;BME280;60402;48.082;11.628;2023-06-24T02:14:07;96170.47;;;15.92;91.92
72409;BME280;60402;48.082;11.628;2023-06-24T02:16:56;96179.81;;;15.93;91.83
72409;BME280;60402;48.082;11.628;2023-06-24T02:19:43;96191.09;;;15.96;91.95
72409;BME280;60402;48.082;11.628;2023-06-24T02:22:29;96162.63;;;15.83;91.47
72409;BME280;60402;48.082;11.628;2023-06-24T02:25:15;96186.50;;;15.99;91.24
72409;BME280;60402;48.082;11.628;2023-06-24T02:28:01;96188.25;;;15.96;91.45
72409;BME280;60402;48.082;11.628;2023-06-24T02:30:47;96195.66;;;15.94;91.81
72409;BME280;60402;48.082;11.628;2023-06-24T02:33:34;96175.91;;;15.77;91.84
72409;BME280;60402;48.082;11.628;2023-06-24T02:36:20;96181.91;;;15.79;91.74
72409;BME280;60402;48.082;11.628;2023-06-24T02:39:05;96163.81;;;15.73;91.71
72409;BME280;60402;48.082;11.628;2023-06-24T02:41:51;96196.25;;;15.89;91.88
72409;BME280;60402;48.082;11.628;2023-06-24T02:44:39;96194.97;;;15.90;91.53
72409;BME280;60402;48.082;11.628;2023-06-24T02:47:25;96207.75;;;15.85;91.72
72409;BME280;60402;48.082;11.628;2023-06-24T02:50:12;96204.00;;;15.88;91.49
72409;BME280;60402;48.082;11.628;2023-06-24T02:52:58;96209.59;;;15.92;91.13
72409;BME280;60402;48.082;11.628;2023-06-24T02:55:45;96219.31;;;15.81;91.79
72409;BME280;60402;48.082;11.628;2023-06-24T02:58:31;96212.16;;;15.77;91.67
72409;BME280;60402;48.082;11.628;2023-06-24T03:01:18;96215.31;;;15.79;91.74
72409;BME280;60402;48.082;11.628;2023-06-24T03:04:10;96201.09;;;15.66;91.83
72409;BME280;60402;48.082;11.628;2023-06-24T03:06:56;96216.22;;;15.76;91.75
72409;BME280;60402;48.082;11.628;2023-06-24T03:09:42;96216.50;;;15.69;91.81
72409;BME280;60402;48.082;11.628;2023-06-24T03:12:28;96222.50;;;15.83;91.56
72409;BME280;60402;48.082;11.628;2023-06-24T03:15:14;96219.22;;;15.72;91.24
72409;BME280;60402;48.082;11.628;2023-06-24T03:18:00;96227.97;;;15.78;91.02
72409;BME280;60402;48.082;11.628;2023-06-24T03:20:45;96233.34;;;15.76;91.89
72409;BME280;60402;48.082;11.628;2023-06-24T03:23:32;96238.00;;;15.82;91.69
72409;BME280;60402;48.082;11.628;2023-06-24T03:26:18;96226.25;;;15.80;91.29
72409;BME280;60402;48.082;11.628;2023-06-24T03:29:04;96230.25;;;15.83;91.56
72409;BME280;60402;48.082;11.628;2023-06-24T03:31:49;96212.97;;;15.65;92.13
72409;BME280;60402;48.082;11.628;2023-06-24T03:34:35;96236.84;;;15.80;91.89
72409;BME280;60402;48.082;11.628;2023-06-24T03:37:21;96234.94;;;15.77;91.83
72409;BME280;60402;48.082;11.628;2023-06-24T03:40:07;96227.19;;;15.77;91.55
72409;BME280;60402;48.082;11.628;2023-06-24T03:42:54;96244.69;;;15.89;91.73
72409;BME280;60402;48.082;11.628;2023-06-24T03:45:39;96239.78;;;15.89;91.73
72409;BME280;60402;48.082;11.628;2023-06-24T03:48:25;96237.81;;;15.99;91.24
72409;BME280;60402;48.082;11.628;2023-06-24T03:51:10;96219.44;;;15.78;91.58
72409;BME280;60402;48.082;11.628;2023-06-24T03:53:56;96252.66;;;15.94;91.86
72409;BME280;60402;48.082;11.628;2023-06-24T03:56:42;96238.13;;;15.79;92.61
72409;BME280;60402;48.082;11.628;2023-06-24T03:59:28;96245.03;;;15.91;92.34
72409;BME280;60402;48.082;11.628;2023-06-24T04:02:13;96239.19;;;15.72;92.93
72409;BME280;60402;48.082;11.628;2023-06-24T04:04:59;96251.19;;;15.89;92.47
72409;BME280;60402;48.082;11.628;2023-06-24T04:07:45;96251.53;;;15.91;92.93
72409;BME280;60402;48.082;11.628;2023-06-24T04:10:36;96233.19;;;15.92;92.81
72409;BME280;60402;48.082;11.628;2023-06-24T04:13:21;96232.97;;;15.87;93.68
72409;BME280;60402;48.082;11.628;2023-06-24T04:16:07;96234.28;;;15.95;92.88
72409;BME280;60402;48.082;11.628;2023-06-24T04:18:53;96260.88;;;15.92;94.24
72409;BME280;60402;48.082;11.628;2023-06-24T04:21:38;96248.31;;;15.67;94.95
72409;BME280;60402;48.082;11.628;2023-06-24T04:24:24;96252.03;;;15.77;94.67
72409;BME280;60402;48.082;11.628;2023-06-24T04:27:09;96224.88;;;15.85;93.35
72409;BME280;60402;48.082;11.628;2023-06-24T04:29:55;96233.56;;;16.03;92.89
72409;BME280;60402;48.082;11.628;2023-06-24T04:32:41;96249.44;;;16.26;92.00
72409;BME280;60402;48.082;11.628;2023-06-24T04:35:26;96254.44;;;16.35;91.76
72409;BME280;60402;48.082;11.628;2023-06-24T04:38:12;96240.44;;;16.28;91.20
72409;BME280;60402;48.082;11.628;2023-06-24T04:41:03;96238.44;;;16.38;90.50
72409;BME280;60402;48.082;11.628;2023-06-24T04:43:49;96266.44;;;16.52;90.39
72409;BME280;60402;48.082;11.628;2023-06-24T04:46:35;96254.75;;;16.59;89.98
72409;BME280;60402;48.082;11.628;2023-06-24T04:49:20;96267.56;;;16.54;89.96
72409;BME280;60402;48.082;11.628;2023-06-24T04:52:07;96252.50;;;16.54;89.29
72409;BME280;60402;48.082;11.628;2023-06-24T04:54:52;96268.75;;;16.66;89.94
72409;BME280;60402;48.082;11.628;2023-06-24T04:57:38;96253.88;;;16.71;89.51
72409;BME280;60402;48.082;11.628;2023-06-24T05:00:24;96254.69;;;16.72;89.16
72409;BME280;60402;48.082;11.628;2023-06-24T05:03:09;96254.19;;;16.95;87.59
72409;BME280;60402;48.082;11.628;2023-06-24T05:05:55;96258.94;;;16.98;87.90
72409;BME280;60402;48.082;11.628;2023-06-24T05:08:41;96239.13;;;16.95;87.66
72409;BME280;60402;48.082;11.628;2023-06-24T05:11:26;96250.88;;;16.97;87.76
72409;BME280;60402;48.082;11.628;2023-06-24T05:14:12;96243.75;;;17.01;87.05
72409;BME280;60402;48.082;11.628;2023-06-24T05:16:57;96267.00;;;17.22;87.29
72409;BME280;60402;48.082;11.628;2023-06-24T05:19:43;96260.53;;;17.30;86.69
72409;BME280;60402;48.082;11.628;2023-06-24T05:22:29;96253.41;;;17.35;86.22
72409;BME280;60402;48.082;11.628;2023-06-24T05:25:14;96269.78;;;17.44;86.82
72409;BME280;60402;48.082;11.628;2023-06-24T05:28:00;96253.47;;;17.53;85.50
72409;BME280;60402;48.082;11.628;2023-06-24T05:30:46;96271.94;;;17.71;85.74
72409;BME280;60402;48.082;11.628;2023-06-24T05:33:31;96277.22;;;17.91;84.92
72409;BME280;60402;48.082;11.628;2023-06-24T05:36:17;96276.94;;;18.07;84.08
72409;BME280;60402;48.082;11.628;2023-06-24T05:39:03;96275.19;;;18.28;83.68
72409;BME280;60402;48.082;11.628;2023-06-24T05:41:50;96264.69;;;18.16;83.14
72409;BME280;60402;48.082;11.628;2023-06-24T05:44:36;96264.53;;;18.47;81.99
72409;BME280;60402;48.082;11.628;2023-06-24T05:47:22;96275.66;;;18.72;81.25
72409;BME280;60402;48.082;11.628;2023-06-24T05:50:07;96272.75;;;18.90;80.30
72409;BME280;60402;48.082;11.628;2023-06-24T05:52:53;96272.31;;;18.92;80.05
72409;BME280;60402;48.082;11.628;2023-06-24T05:55:39;96282.41;;;19.21;78.47
72409;BME280;60402;48.082;11.628;2023-06-24T05:58:24;96286.28;;;18.99;79.19
72409;BME280;60402;48.082;11.628;2023-06-24T06:01:10;96288.19;;;19.02;78.82
72409;BME280;60402;48.082;11.628;2023-06-24T06:03:56;96297.13;;;19.37;78.42
72409;BME280;60402;48.082;11.628;2023-06-24T06:06:41;96291.31;;;19.56;76.82
72409;BME280;60402;48.082;11.628;2023-06-24T06:09:27;96291.88;;;19.78;75.99
72409;BME280;60402;48.082;11.628;2023-06-24T06:12:13;96299.16;;;20.12;74.49
72409;BME280;60402;48.082;11.628;2023-06-24T06:14:58;96271.47;;;20.09;74.64
72409;BME280;60402;48.082;11.628;2023-06-24T06:17:45;96286.09;;;20.11;74.96
72409;BME280;60402;48.082;11.628;2023-06-24T06:20:31;96286.19;;;20.41;72.40
72409;BME280;60402;48.082;11.628;2023-06-24T06:23:17;96296.28;;;20.36;72.03
72409;BME280;60402;48.082;11.628;2023-06-24T06:26:02;96291.25;;;20.46;71.18
72409;BME280;60402;48.082;11.628;2023-06-24T06:28:48;96298.91;;;20.25;72.97
72409;BME280;60402;48.082;11.628;2023-06-24T06:31:34;96271.84;;;20.41;72.36
72409;BME280;60402;48.082;11.628;2023-06-24T06:34:19;96281.81;;;20.31;72.34
72409;BME280;60402;48.082;11.628;2023-06-24T06:37:05;96270.06;;;20.43;71.32
72409;BME280;60402;48.082;11.628;2023-06-24T06:39:51;96285.13;;;20.38;71.08
72409;BME280;60402;48.082;11.628;2023-06-24T06:42:36;96282.50;;;20.50;70.36
72409;BME280;60402;48.082;11.628;2023-06-24T06:45:22;96300.50;;;20.89;68.59
72409;BME280;60402;48.082;11.628;2023-06-24T06:48:08;96286.22;;;20.95;68.40
72409;BME280;60402;48.082;11.628;2023-06-24T06:50:54;96295.94;;;21.12;68.86
72409;BME280;60402;48.082;11.628;2023-06-24T06:53:39;96280.66;;;21.21;67.56
72409;BME280;60402;48.082;11.628;2023-06-24T06:56:25;96299.22;;;21.49;66.10
72409;BME280;60402;48.082;11.628;2023-06-24T06:59:11;96287.81;;;21.40;64.89
72409;BME280;60402;48.082;11.628;2023-06-24T07:01:57;96303.97;;;21.52;65.81
72409;BME280;60402;48.082;11.628;2023-06-24T07:04:43;96295.25;;;21.47;66.41
72409;BME280;60402;48.082;11.628;2023-06-24T07:07:28;96276.16;;;21.79;65.13
72409;BME280;60402;48.082;11.628;2023-06-24T07:10:14;96293.94;;;22.33;60.07
72409;BME280;60402;48.082;11.628;2023-06-24T07:13:00;96277.06;;;22.66;59.85
72409;BME280;60402;48.082;11.628;2023-06-24T07:15:45;96286.94;;;22.60;54.63
72409;BME280;60402;48.082;11.628;2023-06-24T07:18:31;96280.09;;;22.57;56.97
72409;BME280;60402;48.082;11.628;2023-06-24T07:21:17;96280.78;;;23.19;55.91
72409;BME280;60402;48.082;11.628;2023-06-24T07:24:02;96288.31;;;24.06;54.10
72409;BME280;60402;48.082;11.628;2023-06-24T07:26:48;96288.31;;;24.48;52.04
72409;BME280;60402;48.082;11.628;2023-06-24T07:29:34;96290.28;;;24.31;49.52
72409;BME280;60402;48.082;11.628;2023-06-24T07:32:20;96296.84;;;24.32;47.86
72409;BME280;60402;48.082;11.628;2023-06-24T07:35:06;96277.56;;;24.60;46.84
72409;BME280;60402;48.082;11.628;2023-06-24T07:37:52;96276.78;;;24.60;47.09
72409;BME280;60402;48.082;11.628;2023-06-24T07:40:37;96288.53;;;23.96;49.54
72409;BME280;60402;48.082;11.628;2023-06-24T07:43:23;96288.91;;;24.69;48.09
72409;BME280;60402;48.082;11.628;2023-06-24T07:46:09;96275.19;;;24.47;47.54
72409;BME280;60402;48.082;11.628;2023-06-24T07:48:54;96287.91;;;24.24;48.25
72409;BME280;60402;48.082;11.628;2023-06-24T07:51:40;96276.28;;;24.13;48.59
72409;BME280;60402;48.082;11.628;2023-06-24T07:54:25;96280.22;;;23.73;49.75
72409;BME280;60402;48.082;11.628;2023-06-24T07:57:11;96279.88;;;23.96;49.67
72409;BME280;60402;48.082;11.628;2023-06-24T07:59:57;96277.03;;;24.08;47.88
72409;BME280;60402;48.082;11.628;2023-06-24T08:02:43;96295.50;;;23.84;48.45
72409;BME280;60402;48.082;11.628;2023-06-24T08:05:28;96290.78;;;23.24;46.78
72409;BME280;60402;48.082;11.628;2023-06-24T08:08:14;96290.25;;;22.73;49.34
72409;BME280;60402;48.082;11.628;2023-06-24T08:11:00;96288.66;;;23.50;49.71
72409;BME280;60402;48.082;11.628;2023-06-24T08:13:45;96296.31;;;23.85;48.89
72409;BME280;60402;48.082;11.628;2023-06-24T08:16:31;96300.28;;;23.87;46.74
72409;BME280;60402;48.082;11.628;2023-06-24T08:19:17;96283.91;;;23.47;46.46
72409;BME280;60402;48.082;11.628;2023-06-24T08:22:03;96288.81;;;24.04;46.51
72409;BME280;60402;48.082;11.628;2023-06-24T08:24:49;96282.03;;;24.56;46.05
72409;BME280;60402;48.082;11.628;2023-06-24T08:34:59;96296.63;;;24.35;44.66
72409;BME280;60402;48.082;11.628;2023-06-24T08:37:45;96295.44;;;23.47;46.56
72409;BME280;60402;48.082;11.628;2023-06-24T08:40:31;96281.63;;;22.53;48.99
72409;BME280;60402;48.082;11.628;2023-06-24T08:43:16;96288.41;;;22.50;50.83
72409;BME280;60402;48.082;11.628;2023-06-24T08:46:02;96275.75;;;23.14;48.43
72409;BME280;60402;48.082;11.628;2023-06-24T08:48:48;96291.13;;;23.05;48.34
72409;BME280;60402;48.082;11.628;2023-06-24T08:51:40;96285.19;;;23.40;47.48
72409;BME280;60402;48.082;11.628;2023-06-24T08:54:26;96285.31;;;23.00;48.10
72409;BME280;60402;48.082;11.628;2023-06-24T08:57:12;96280.84;;;22.99;48.15
72409;BME280;60402;48.082;11.628;2023-06-24T09:00:00;96275.34;;;23.27;47.93
72409;BME280;60402;48.082;11.628;2023-06-24T09:02:46;96275.22;;;23.67;46.17
72409;BME280;60402;48.082;11.628;2023-06-24T09:05:32;96281.59;;;23.51;46.39
72409;BME280;60402;48.082;11.628;2023-06-24T09:08:17;96277.00;;;22.20;48.62
72409;BME280;60402;48.082;11.628;2023-06-24T09:11:03;96281.16;;;21.99;49.84
72409;BME280;60402;48.082;11.628;2023-06-24T09:13:57;96293.28;;;22.64;50.24
72409;BME280;60402;48.082;11.628;2023-06-24T09:16:52;96276.63;;;22.94;48.79
72409;BME280;60402;48.082;11.628;2023-06-24T09:19:38;96280.16;;;23.09;49.02
72409;BME280;60402;48.082;11.628;2023-06-24T09:22:28;96286.28;;;23.17;47.80
72409;BME280;60402;48.082;11.628;2023-06-24T09:25:18;96278.88;;;22.64;49.54
72409;BME280;60402;48.082;11.628;2023-06-24T09:28:04;96280.63;;;22.56;48.49
72409;BME280;60402;48.082;11.628;2023-06-24T09:31:07;96276.47;;;22.01;49.58
72409;BME280;60402;48.082;11.628;2023-06-24T09:33:56;96277.94;;;22.52;50.10
72409;BME280;60402;48.082;11.628;2023-06-24T09:36:43;96264.38;;;22.58;47.32
72409;BME280;60402;48.082;11.628;2023-06-24T09:39:36;96274.22;;;23.18;46.97
72409;BME280;60402;48.082;11.628;2023-06-24T09:42:22;96268.09;;;23.37;46.09
72409;BME280;60402;48.082;11.628;2023-06-24T09:45:11;96270.16;;;23.31;46.21
72409;BME280;60402;48.082;11.628;2023-06-24T09:47:57;96257.59;;;23.65;47.84
72409;BME280;60402;48.082;11.628;2023-06-24T09:50:46;96246.59;;;24.07;44.39
72409;BME280;60402;48.082;11.628;2023-06-24T09:53:33;96260.31;;;23.80;46.54
72409;BME280;60402;48.082;11.628;2023-06-24T09:56:20;96259.69;;;24.02;45.03
72409;BME280;60402;48.082;11.628;2023-06-24T09:59:06;96256.06;;;23.38;44.19
72409;BME280;60402;48.082;11.628;2023-06-24T10:01:53;96246.84;;;22.56;47.21
72409;BME280;60402;48.082;11.628;2023-06-24T10:04:39;96256.53;;;23.31;45.32
72409;BME280;60402;48.082;11.628;2023-06-24T10:07:25;96237.06;;;22.94;46.25
72409;BME280;60402;48.082;11.628;2023-06-24T10:10:12;96251.47;;;22.94;47.29
72409;BME280;60402;48.082;11.628;2023-06-24T10:12:58;96242.56;;;22.26;48.07
72409;BME280;60402;48.082;11.628;2023-06-24T10:15:44;96233.22;;;23.03;46.77
72409;BME280;60402;48.082;11.628;2023-06-24T10:18:37;96227.19;;;23.64;45.61
72409;BME280;60402;48.082;11.628;2023-06-24T10:21:24;96240.59;;;24.10;43.75
72409;BME280;60402;48.082;11.628;2023-06-24T10:24:41;96229.34;;;23.75;44.48
72409;BME280;60402;48.082;11.628;2023-06-24T10:27:27;96205.06;;;23.24;44.76
72409;BME280;60402;48.082;11.628;2023-06-24T10:30:18;96219.44;;;22.66;45.01
72409;BME280;60402;48.082;11.628;2023-06-24T10:33:11;96207.03;;;23.07;43.73
72409;BME280;60402;48.082;11.628;2023-06-24T10:35:57;96221.47;;;23.07;44.22
72409;BME280;60402;48.082;11.628;2023-06-24T10:38:55;96224.94;;;23.16;43.97
72409;BME280;60402;48.082;11.628;2023-06-24T10:41:40;96213.38;;;23.11;45.25
72409;BME280;60402;48.082;11.628;2023-06-24T10:44:26;96207.88;;;22.87;45.23
72409;BME280;60402;48.082;11.628;2023-06-24T10:47:12;96218.41;;;23.16;45.65
72409;BME280;60402;48.082;11.628;2023-06-24T10:49:57;96205.16;;;23.04;45.09
72409;BME280;60402;48.082;11.628;2023-06-24T10:52:51;96213.28;;;23.31;44.94
72409;BME280;60402;48.082;11.628;2023-06-24T10:55:43;96203.25;;;22.95;46.14
72409;BME280;60402;48.082;11.628;2023-06-24T10:58:29;96187.44;;;23.11;46.50
72409;BME280;60402;48.082;11.628;2023-06-24T11:01:14;96197.75;;;22.91;47.80
72409;BME280;60402;48.082;11.628;2023-06-24T11:04:05;96182.94;;;23.10;47.54
72409;BME280;60402;48.082;11.628;2023-06-24T11:07:01;96199.91;;;22.76;47.75
72409;BME280;60402;48.082;11.628;2023-06-24T11:09:54;96186.38;;;22.82;47.30
72409;BME280;60402;48.082;11.628;2023-06-24T11:12:41;96193.47;;;23.13;47.04
72409;BME280;60402;48.082;11.628;2023-06-24T11:15:27;96192.25;;;23.25;46.45
72409;BME280;60402;48.082;11.628;2023-06-24T11:18:14;96163.28;;;23.45;46.73
72409;BME280;60402;48.082;11.628;2023-06-24T11:20:59;96187.25;;;23.57;46.03
72409;BME280;60402;48.082;11.628;2023-06-24T11:23:45;96177.53;;;23.60;45.94
72409;BME280;60402;48.082;11.628;2023-06-24T11:26:32;96185.06;;;23.84;46.69
72409;BME280;60402;48.082;11.628;2023-06-24T11:29:18;96171.97;;;23.94;45.39
72409;BME280;60402;48.082;11.628;2023-06-24T11:32:07;96170.75;;;23.63;45.35
72409;BME280;60402;48.082;11.628;2023-06-24T11:34:54;96154.16;;;22.58;45.96
72409;BME280;60402;48.082;11.628;2023-06-24T11:37:44;96160.28;;;21.99;46.96
72409;BME280;60402;48.082;11.628;2023-06-24T11:40:31;96153.53;;;22.74;45.30
72409;BME280;60402;48.082;11.628;2023-06-24T11:43:18;96138.84;;;22.72;45.64
72409;BME280;60402;48.082;11.628;2023-06-24T11:46:03;96137.91;;;22.86;45.93
72409;BME280;60402;48.082;11.628;2023-06-24T11:48:49;96124.81;;;23.60;43.48
72409;BME280;60402;48.082;11.628;2023-06-24T11:51:35;96143.66;;;23.98;42.26
72409;BME280;60402;48.082;11.628;2023-06-24T11:54:21;96134.97;;;23.87;41.39
72409;BME280;60402;48.082;11.628;2023-06-24T11:57:07;96145.22;;;23.93;42.10
72409;BME280;60402;48.082;11.628;2023-06-24T11:59:52;96141.03;;;23.94;42.39
72409;BME280;60402;48.082;11.628;2023-06-24T12:02:38;96132.13;;;23.50;42.65
72409;BME280;60402;48.082;11.628;2023-06-24T12:05:25;96111.63;;;23.05;42.57
72409;BME280;60402;48.082;11.628;2023-06-24T12:08:13;96115.22;;;22.94;43.50
72409;BME280;60402;48.082;11.628;2023-06-24T12:11:00;96122.63;;;22.49;43.72
72409;BME280;60402;48.082;11.628;2023-06-24T12:13:46;96116.34;;;22.76;44.74
72409;BME280;60402;48.082;11.628;2023-06-24T12:16:32;96095.25;;;22.59;43.96
72409;BME280;60402;48.082;11.628;2023-06-24T12:19:17;96099.25;;;23.36;43.46
72409;BME280;60402;48.082;11.628;2023-06-24T12:22:03;96099.53;;;23.01;42.34
72409;BME280;60402;48.082;11.628;2023-06-24T12:24:48;96101.88;;;23.34;42.68
72409;BME280;60402;48.082;11.628;2023-06-24T12:27:34;96098.41;;;23.67;40.80
72409;BME280;60402;48.082;11.628;2023-06-24T12:30:20;96105.03;;;22.99;42.09
72409;BME280;60402;48.082;11.628;2023-06-24T12:33:07;96101.72;;;22.80;42.37
72409;BME280;60402;48.082;11.628;2023-06-24T12:35:54;96094.38;;;23.53;42.37
72409;BME280;60402;48.082;11.628;2023-06-24T12:38:39;96073.84;;;23.88;42.18
72409;BME280;60402;48.082;11.628;2023-06-24T12:41:25;96070.31;;;24.44;41.84
72409;BME280;60402;48.082;11.628;2023-06-24T12:44:13;96088.72;;;24.63;40.54
72409;BME280;60402;48.082;11.628;2023-06-24T12:46:59;96070.53;;;24.35;41.17
72409;BME280;60402;48.082;11.628;2023-06-24T12:49:44;96070.78;;;24.26;40.40
72409;BME280;60402;48.082;11.628;2023-06-24T12:52:30;96068.63;;;23.98;41.24
72409;BME280;60402;48.082;11.628;2023-06-24T12:55:16;96057.34;;;24.00;40.69
72409;BME280;60402;48.082;11.628;2023-06-24T12:58:01;96062.66;;;23.53;42.30
72409;BME280;60402;48.082;11.628;2023-06-24T13:00:47;96064.94;;;23.97;41.49
72409;BME280;60402;48.082;11.628;2023-06-24T13:03:33;96052.88;;;23.99;40.73
72409;BME280;60402;48.082;11.628;2023-06-24T13:06:18;96059.47;;;24.16;41.02
72409;BME280;60402;48.082;11.628;2023-06-24T13:09:04;96062.59;;;24.13;40.79
72409;BME280;60402;48.082;11.628;2023-06-24T13:11:50;96058.13;;;23.95;41.46
72409;BME280;60402;48.082;11.628;2023-06-24T13:14:37;96054.78;;;24.25;40.56
72409;BME280;60402;48.082;11.628;2023-06-24T13:17:22;96058.69;;;24.16;40.57
72409;BME280;60402;48.082;11.628;2023-06-24T13:20:09;96060.63;;;24.47;40.17
72409;BME280;60402;48.082;11.628;2023-06-24T13:22:55;96045.13;;;24.61;38.54
72409;BME280;60402;48.082;11.628;2023-06-24T13:25:41;96044.06;;;24.70;39.15
72409;BME280;60402;48.082;11.628;2023-06-24T13:28:26;96060.59;;;24.97;39.21
72409;BME280;60402;48.082;11.628;2023-06-24T13:31:12;96042.97;;;25.12;38.92
72409;BME280;60402;48.082;11.628;2023-06-24T13:33:58;96044.00;;;25.37;38.14
72409;BME280;60402;48.082;11.628;2023-06-24T13:36:43;96040.31;;;25.42;39.24
72409;BME280;60402;48.082;11.628;2023-06-24T13:39:29;96046.28;;;25.61;37.49
72409;BME280;60402;48.082;11.628;2023-06-24T13:42:15;96057.06;;;25.61;37.46
72409;BME280;60402;48.082;11.628;2023-06-24T13:45:01;96037.25;;;24.84;39.00
72409;BME280;60402;48.082;11.628;2023-06-24T13:47:47;96048.53;;;24.77;39.69
72409;BME280;60402;48.082;11.628;2023-06-24T13:50:32;96037.09;;;23.83;40.35
72409;BME280;60402;48.082;11.628;2023-06-24T13:53:18;96047.28;;;23.73;41.75
72409;BME280;60402;48.082;11.628;2023-06-24T13:56:13;96051.91;;;23.54;42.40
72409;BME280;60402;48.082;11.628;2023-06-24T13:58:59;96043.94;;;23.91;41.96
72409;BME280;60402;48.082;11.628;2023-06-24T14:01:45;96036.63;;;24.13;41.18
72409;BME280;60402;48.082;11.628;2023-06-24T14:04:30;96034.19;;;23.78;41.59
72409;BME280;60402;48.082;11.628;2023-06-24T14:07:16;96037.59;;;23.76;41.51
72409;BME280;60402;48.082;11.628;2023-06-24T14:10:02;96044.97;;;23.83;42.22
72409;BME280;60402;48.082;11.628;2023-06-24T14:12:47;96038.72;;;23.95;42.31
72409;BME280;60402;48.082;11.628;2023-06-24T14:15:33;96037.25;;;23.63;41.96
72409;BME280;60402;48.082;11.628;2023-06-24T14:18:19;96024.69;;;23.66;43.12
72409;BME280;60402;48.082;11.628;2023-06-24T14:21:06;96030.00;;;23.84;42.01
72409;BME280;60402;48.082;11.628;2023-06-24T14:23:52;96022.66;;;23.83;41.57
72409;BME280;60402;48.082;11.628;2023-06-24T14:26:38;96011.06;;;23.66;42.48
72409;BME280;60402;48.082;11.628;2023-06-24T14:29:24;96007.72;;;23.90;40.43
72409;BME280;60402;48.082;11.628;2023-06-24T14:32:10;96015.31;;;23.88;40.37
72409;BME280;60402;48.082;11.628;2023-06-24T14:34:56;96011.66;;;23.93;41.80
72409;BME280;60402;48.082;11.628;2023-06-24T14:37:42;96016.13;;;23.94;40.36
72409;BME280;60402;48.082;11.628;2023-06-24T14:40:27;96008.78;;;23.93;39.13
72409;BME280;60402;48.082;11.628;2023-06-24T14:43:13;96011.91;;;23.89;39.89
72409;BME280;60402;48.082;11.628;2023-06-24T14:45:59;96017.47;;;24.15;39.66
72409;BME280;60402;48.082;11.628;2023-06-24T14:48:44;96012.72;;;23.95;39.55
72409;BME280;60402;48.082;11.628;2023-06-24T14:51:30;95998.25;;;23.84;39.08